logo dgac
Martes 27 de Febrero del 2024
Buscar por aerodromo o helipuerto
Ingrese nombre de aeródromo, localidad o designador OACI:

Aeródromo: Futaleufú (PUB) (SCFT)

Ubicación: Futaleufú, X Región, Chile (43º 11' 09'' S, 71º 51' 02'' W) Ver ubicación en el mapa

Pistas

Luces
Orientación Dimensión Pendiente Superficie Resistencia APCH THR RWY PAPI
09/27 948 x 18 1,00 ASPH PCN 27 F/A/Y/T No No No No
Horas de operación HJ
Elevación 350 m / 1148 ft
Otra Información Adm : D.G.A.C.
Uso : PUB
Ubicado a 1.2 km E Futaleufú
TEL 652486288 / CEL +56 961733470
email : aro.futaleufu@dgac.gob.cl

Otra información ver AIP-Chile Volumen I AD 3.9-6.2-F
CCCM/FCCV Descargar CCCM/FCCV
andera de Chile
Mapa de  Futaleufú (PUB) (SCFT)

Último METAR

METAR SCFT 272200Z AUTO 28006KT 250V310 9999 -SHRA FEW020/// SCT024/// OVC044/// 16/14 Q1009

Último TAF

No hay tafs registrados para este aeródromo

Últimas fotos cámaras

Imagen aerodromo  Futaleufú (PUB) (SCFT) Este tomada el 27-02-2024 10:48:09

Último NOTAM

C0815/24 NOTAMR C0384/24 Q)SCTZ/QFALT/IV/NBO/A/000/999/4311S07151W005 A)SCFT B)2402221632 C)2403291930 E)LGT AVIACION SOLAR PARA EMERG NO AVBL